sensor_id;sensor_type;location;lat;lon;timestamp;P1;durP1;ratioP1;P2;durP2;ratioP2
75649;SDS011;64245;51.282;22.494;2023-12-20T00:01:35;11.50;;;3.95;;
75649;SDS011;64245;51.282;22.494;2023-12-20T00:04:02;11.13;;;3.58;;
75649;SDS011;64245;51.282;22.494;2023-12-20T00:06:29;7.60;;;4.70;;
75649;SDS011;64245;51.282;22.494;2023-12-20T00:08:55;7.18;;;4.07;;
75649;SDS011;64245;51.282;22.494;2023-12-20T00:11:20;9.68;;;4.95;;
75649;SDS011;64245;51.282;22.494;2023-12-20T00:13:46;4.43;;;2.35;;
75649;SDS011;64245;51.282;22.494;2023-12-20T00:16:12;9.70;;;3.90;;
75649;SDS011;64245;51.282;22.494;2023-12-20T00:18:37;5.50;;;1.38;;
75649;SDS011;64245;51.282;22.494;2023-12-20T00:21:03;6.10;;;3.35;;
75649;SDS011;64245;51.282;22.494;2023-12-20T00:23:29;5.35;;;4.07;;
75649;SDS011;64245;51.282;22.494;2023-12-20T00:25:55;5.97;;;3.50;;
75649;SDS011;64245;51.282;22.494;2023-12-20T00:28:20;7.20;;;4.38;;
75649;SDS011;64245;51.282;22.494;2023-12-20T00:30:46;7.18;;;3.28;;
75649;SDS011;64245;51.282;22.494;2023-12-20T00:33:12;3.22;;;2.72;;
75649;SDS011;64245;51.282;22.494;2023-12-20T00:35:38;7.45;;;4.20;;
75649;SDS011;64245;51.282;22.494;2023-12-20T00:38:03;3.70;;;2.88;;
75649;SDS011;64245;51.282;22.494;2023-12-20T00:40:30;7.90;;;3.95;;
75649;SDS011;64245;51.282;22.494;2023-12-20T00:42:56;6.43;;;3.90;;
75649;SDS011;64245;51.282;22.494;2023-12-20T00:45:22;6.57;;;4.47;;
75649;SDS011;64245;51.282;22.494;2023-12-20T00:47:47;8.00;;;3.72;;
75649;SDS011;64245;51.282;22.494;2023-12-20T00:50:13;10.50;;;3.63;;
75649;SDS011;64245;51.282;22.494;2023-12-20T00:52:38;7.90;;;3.03;;
75649;SDS011;64245;51.282;22.494;2023-12-20T00:55:04;5.65;;;4.03;;
75649;SDS011;64245;51.282;22.494;2023-12-20T00:57:30;13.52;;;3.78;;
75649;SDS011;64245;51.282;22.494;2023-12-20T00:59:56;9.25;;;4.03;;
75649;SDS011;64245;51.282;22.494;2023-12-20T01:02:22;6.85;;;3.95;;
75649;SDS011;64245;51.282;22.494;2023-12-20T01:04:48;3.42;;;2.50;;
75649;SDS011;64245;51.282;22.494;2023-12-20T01:07:13;7.13;;;3.42;;
75649;SDS011;64245;51.282;22.494;2023-12-20T01:09:39;9.43;;;3.47;;
75649;SDS011;64245;51.282;22.494;2023-12-20T01:12:05;2.45;;;2.03;;
75649;SDS011;64245;51.282;22.494;2023-12-20T01:14:31;10.52;;;3.83;;
75649;SDS011;64245;51.282;22.494;2023-12-20T01:16:56;4.75;;;2.65;;
75649;SDS011;64245;51.282;22.494;2023-12-20T01:19:22;5.65;;;2.97;;
75649;SDS011;64245;51.282;22.494;2023-12-20T01:21:49;8.75;;;1.73;;
75649;SDS011;64245;51.282;22.494;2023-12-20T01:24:14;8.32;;;3.80;;
75649;SDS011;64245;51.282;22.494;2023-12-20T01:26:40;4.85;;;2.25;;
75649;SDS011;64245;51.282;22.494;2023-12-20T01:29:06;9.20;;;3.90;;
75649;SDS011;64245;51.282;22.494;2023-12-20T01:31:31;5.57;;;3.05;;
75649;SDS011;64245;51.282;22.494;2023-12-20T01:33:57;6.90;;;3.22;;
75649;SDS011;64245;51.282;22.494;2023-12-20T01:36:22;3.45;;;2.50;;
75649;SDS011;64245;51.282;22.494;2023-12-20T01:38:48;5.43;;;3.25;;
75649;SDS011;64245;51.282;22.494;2023-12-20T01:41:14;5.93;;;4.25;;
75649;SDS011;64245;51.282;22.494;2023-12-20T01:43:40;5.35;;;2.65;;
75649;SDS011;64245;51.282;22.494;2023-12-20T01:46:06;6.68;;;3.58;;
75649;SDS011;64245;51.282;22.494;2023-12-20T01:48:32;9.50;;;4.85;;
75649;SDS011;64245;51.282;22.494;2023-12-20T01:50:59;11.80;;;4.60;;
75649;SDS011;64245;51.282;22.494;2023-12-20T01:53:26;3.75;;;3.45;;
75649;SDS011;64245;51.282;22.494;2023-12-20T01:55:54;4.57;;;2.63;;
75649;SDS011;64245;51.282;22.494;2023-12-20T01:58:20;1.80;;;1.70;;
75649;SDS011;64245;51.282;22.494;2023-12-20T02:00:48;5.72;;;3.70;;
75649;SDS011;64245;51.282;22.494;2023-12-20T02:03:14;6.20;;;3.00;;
75649;SDS011;64245;51.282;22.494;2023-12-20T02:05:41;8.77;;;4.88;;
75649;SDS011;64245;51.282;22.494;2023-12-20T02:08:06;5.10;;;3.60;;
75649;SDS011;64245;51.282;22.494;2023-12-20T02:10:32;6.82;;;3.80;;
75649;SDS011;64245;51.282;22.494;2023-12-20T02:12:58;10.02;;;4.35;;
75649;SDS011;64245;51.282;22.494;2023-12-20T02:15:23;5.20;;;3.83;;
75649;SDS011;64245;51.282;22.494;2023-12-20T02:17:49;5.53;;;2.70;;
75649;SDS011;64245;51.282;22.494;2023-12-20T02:20:15;4.78;;;3.08;;
75649;SDS011;64245;51.282;22.494;2023-12-20T02:22:41;5.50;;;2.00;;
75649;SDS011;64245;51.282;22.494;2023-12-20T02:25:07;4.10;;;2.08;;
75649;SDS011;64245;51.282;22.494;2023-12-20T02:27:33;8.63;;;3.65;;
75649;SDS011;64245;51.282;22.494;2023-12-20T02:29:59;7.50;;;3.92;;
75649;SDS011;64245;51.282;22.494;2023-12-20T02:32:25;8.00;;;3.67;;
75649;SDS011;64245;51.282;22.494;2023-12-20T02:34:51;5.72;;;3.25;;
75649;SDS011;64245;51.282;22.494;2023-12-20T02:37:17;8.10;;;3.55;;
75649;SDS011;64245;51.282;22.494;2023-12-20T02:39:43;4.22;;;3.13;;
75649;SDS011;64245;51.282;22.494;2023-12-20T02:42:08;5.30;;;2.63;;
75649;SDS011;64245;51.282;22.494;2023-12-20T02:44:34;11.75;;;3.92;;
75649;SDS011;64245;51.282;22.494;2023-12-20T02:47:00;7.25;;;3.42;;
75649;SDS011;64245;51.282;22.494;2023-12-20T02:49:25;4.20;;;3.35;;
75649;SDS011;64245;51.282;22.494;2023-12-20T02:51:54;6.05;;;1.35;;
75649;SDS011;64245;51.282;22.494;2023-12-20T02:54:20;5.40;;;2.97;;
75649;SDS011;64245;51.282;22.494;2023-12-20T02:56:45;6.10;;;2.42;;
75649;SDS011;64245;51.282;22.494;2023-12-20T02:59:11;6.45;;;3.78;;
75649;SDS011;64245;51.282;22.494;2023-12-20T03:01:44;4.15;;;2.42;;
75649;SDS011;64245;51.282;22.494;2023-12-20T03:04:11;2.97;;;2.13;;
75649;SDS011;64245;51.282;22.494;2023-12-20T03:06:37;6.68;;;2.78;;
75649;SDS011;64245;51.282;22.494;2023-12-20T03:09:03;12.77;;;3.45;;
75649;SDS011;64245;51.282;22.494;2023-12-20T03:11:30;10.63;;;5.85;;
75649;SDS011;64245;51.282;22.494;2023-12-20T03:13:56;8.40;;;3.15;;
75649;SDS011;64245;51.282;22.494;2023-12-20T03:16:22;4.72;;;2.42;;
75649;SDS011;64245;51.282;22.494;2023-12-20T03:18:48;3.90;;;2.00;;
75649;SDS011;64245;51.282;22.494;2023-12-20T03:21:14;5.55;;;3.45;;
75649;SDS011;64245;51.282;22.494;2023-12-20T03:23:40;6.57;;;2.85;;
75649;SDS011;64245;51.282;22.494;2023-12-20T03:26:06;6.72;;;2.67;;
75649;SDS011;64245;51.282;22.494;2023-12-20T03:28:33;11.05;;;4.50;;
75649;SDS011;64245;51.282;22.494;2023-12-20T03:30:59;6.53;;;2.88;;
75649;SDS011;64245;51.282;22.494;2023-12-20T03:33:24;7.72;;;3.65;;
75649;SDS011;64245;51.282;22.494;2023-12-20T03:35:50;4.35;;;3.70;;
75649;SDS011;64245;51.282;22.494;2023-12-20T03:38:16;5.47;;;2.83;;
75649;SDS011;64245;51.282;22.494;2023-12-20T03:40:41;1.98;;;1.80;;
75649;SDS011;64245;51.282;22.494;2023-12-20T03:43:07;7.78;;;3.42;;
75649;SDS011;64245;51.282;22.494;2023-12-20T03:45:33;4.72;;;3.92;;
75649;SDS011;64245;51.282;22.494;2023-12-20T03:47:58;8.63;;;4.10;;
75649;SDS011;64245;51.282;22.494;2023-12-20T03:50:25;7.70;;;3.65;;
75649;SDS011;64245;51.282;22.494;2023-12-20T03:52:51;8.23;;;4.35;;
75649;SDS011;64245;51.282;22.494;2023-12-20T03:55:17;6.90;;;2.58;;
75649;SDS011;64245;51.282;22.494;2023-12-20T03:57:42;5.35;;;3.35;;
75649;SDS011;64245;51.282;22.494;2023-12-20T04:00:09;6.10;;;4.63;;
75649;SDS011;64245;51.282;22.494;2023-12-20T04:02:39;3.92;;;3.10;;
75649;SDS011;64245;51.282;22.494;2023-12-20T04:05:06;7.00;;;2.33;;
75649;SDS011;64245;51.282;22.494;2023-12-20T04:07:32;5.65;;;3.05;;
75649;SDS011;64245;51.282;22.494;2023-12-20T04:09:58;7.43;;;5.15;;
75649;SDS011;64245;51.282;22.494;2023-12-20T04:12:24;5.97;;;3.92;;
75649;SDS011;64245;51.282;22.494;2023-12-20T04:14:50;6.13;;;3.05;;
75649;SDS011;64245;51.282;22.494;2023-12-20T04:17:16;6.45;;;3.85;;
75649;SDS011;64245;51.282;22.494;2023-12-20T04:19:42;3.55;;;2.10;;
75649;SDS011;64245;51.282;22.494;2023-12-20T04:22:08;7.60;;;3.03;;
75649;SDS011;64245;51.282;22.494;2023-12-20T04:24:34;3.70;;;1.95;;
75649;SDS011;64245;51.282;22.494;2023-12-20T04:27:00;7.07;;;4.93;;
75649;SDS011;64245;51.282;22.494;2023-12-20T04:29:28;5.72;;;4.20;;
75649;SDS011;64245;51.282;22.494;2023-12-20T04:31:54;5.10;;;2.45;;
75649;SDS011;64245;51.282;22.494;2023-12-20T04:34:20;7.50;;;3.60;;
75649;SDS011;64245;51.282;22.494;2023-12-20T04:36:46;5.03;;;2.53;;
75649;SDS011;64245;51.282;22.494;2023-12-20T04:39:12;6.38;;;3.08;;
75649;SDS011;64245;51.282;22.494;2023-12-20T04:41:38;7.32;;;3.72;;
75649;SDS011;64245;51.282;22.494;2023-12-20T04:44:05;4.70;;;3.05;;
75649;SDS011;64245;51.282;22.494;2023-12-20T04:46:31;5.95;;;2.78;;
75649;SDS011;64245;51.282;22.494;2023-12-20T04:48:57;9.18;;;4.80;;
75649;SDS011;64245;51.282;22.494;2023-12-20T04:51:23;3.85;;;2.63;;
75649;SDS011;64245;51.282;22.494;2023-12-20T04:53:48;5.70;;;2.95;;
75649;SDS011;64245;51.282;22.494;2023-12-20T04:56:14;6.45;;;3.92;;
75649;SDS011;64245;51.282;22.494;2023-12-20T04:58:40;5.70;;;2.95;;
75649;SDS011;64245;51.282;22.494;2023-12-20T05:01:05;4.18;;;3.75;;
75649;SDS011;64245;51.282;22.494;2023-12-20T05:03:32;7.40;;;3.50;;
75649;SDS011;64245;51.282;22.494;2023-12-20T05:05:58;3.47;;;2.13;;
75649;SDS011;64245;51.282;22.494;2023-12-20T05:08:24;5.70;;;2.15;;
75649;SDS011;64245;51.282;22.494;2023-12-20T05:10:50;5.95;;;4.25;;
75649;SDS011;64245;51.282;22.494;2023-12-20T05:13:17;5.30;;;3.30;;
75649;SDS011;64245;51.282;22.494;2023-12-20T05:15:42;4.78;;;2.33;;
75649;SDS011;64245;51.282;22.494;2023-12-20T05:18:08;9.45;;;4.75;;
75649;SDS011;64245;51.282;22.494;2023-12-20T05:20:34;7.50;;;3.78;;
75649;SDS011;64245;51.282;22.494;2023-12-20T05:23:00;7.32;;;2.80;;
75649;SDS011;64245;51.282;22.494;2023-12-20T05:25:25;8.48;;;4.05;;
75649;SDS011;64245;51.282;22.494;2023-12-20T05:27:51;4.50;;;2.80;;
75649;SDS011;64245;51.282;22.494;2023-12-20T05:30:16;7.55;;;2.72;;
75649;SDS011;64245;51.282;22.494;2023-12-20T05:32:42;5.93;;;3.15;;
75649;SDS011;64245;51.282;22.494;2023-12-20T05:35:08;5.15;;;3.85;;
75649;SDS011;64245;51.282;22.494;2023-12-20T05:37:34;8.38;;;3.72;;
75649;SDS011;64245;51.282;22.494;2023-12-20T05:39:59;5.65;;;3.92;;
75649;SDS011;64245;51.282;22.494;2023-12-20T05:42:25;6.00;;;3.00;;
75649;SDS011;64245;51.282;22.494;2023-12-20T05:44:50;3.92;;;3.55;;
75649;SDS011;64245;51.282;22.494;2023-12-20T05:47:16;6.05;;;3.00;;
75649;SDS011;64245;51.282;22.494;2023-12-20T05:49:42;5.03;;;2.50;;
75649;SDS011;64245;51.282;22.494;2023-12-20T05:52:09;7.00;;;3.13;;
75649;SDS011;64245;51.282;22.494;2023-12-20T05:54:34;5.25;;;3.35;;
75649;SDS011;64245;51.282;22.494;2023-12-20T05:57:00;4.72;;;2.95;;
75649;SDS011;64245;51.282;22.494;2023-12-20T05:59:29;6.05;;;4.15;;
75649;SDS011;64245;51.282;22.494;2023-12-20T06:01:54;5.32;;;3.35;;
75649;SDS011;64245;51.282;22.494;2023-12-20T06:04:20;7.03;;;4.13;;
75649;SDS011;64245;51.282;22.494;2023-12-20T06:06:46;4.85;;;3.95;;
75649;SDS011;64245;51.282;22.494;2023-12-20T06:09:11;10.82;;;5.00;;
75649;SDS011;64245;51.282;22.494;2023-12-20T06:11:37;6.72;;;4.53;;
75649;SDS011;64245;51.282;22.494;2023-12-20T06:14:03;3.85;;;2.83;;
75649;SDS011;64245;51.282;22.494;2023-12-20T06:16:28;8.13;;;4.47;;
75649;SDS011;64245;51.282;22.494;2023-12-20T06:18:54;5.43;;;3.65;;
75649;SDS011;64245;51.282;22.494;2023-12-20T06:21:20;8.52;;;3.92;;
75649;SDS011;64245;51.282;22.494;2023-12-20T06:23:46;8.48;;;4.60;;
75649;SDS011;64245;51.282;22.494;2023-12-20T06:26:11;3.85;;;2.88;;
75649;SDS011;64245;51.282;22.494;2023-12-20T06:28:37;5.72;;;3.10;;
75649;SDS011;64245;51.282;22.494;2023-12-20T06:31:03;4.20;;;3.40;;
75649;SDS011;64245;51.282;22.494;2023-12-20T06:33:29;9.93;;;3.28;;
75649;SDS011;64245;51.282;22.494;2023-12-20T06:35:56;8.35;;;3.65;;
75649;SDS011;64245;51.282;22.494;2023-12-20T06:38:22;6.88;;;3.30;;
75649;SDS011;64245;51.282;22.494;2023-12-20T06:40:48;7.60;;;3.63;;
75649;SDS011;64245;51.282;22.494;2023-12-20T06:43:14;9.25;;;4.22;;
75649;SDS011;64245;51.282;22.494;2023-12-20T06:45:39;6.78;;;3.45;;
75649;SDS011;64245;51.282;22.494;2023-12-20T06:48:06;5.05;;;3.10;;
75649;SDS011;64245;51.282;22.494;2023-12-20T06:50:31;8.82;;;5.13;;
75649;SDS011;64245;51.282;22.494;2023-12-20T06:52:57;4.88;;;3.42;;
75649;SDS011;64245;51.282;22.494;2023-12-20T06:55:23;10.07;;;4.90;;
75649;SDS011;64245;51.282;22.494;2023-12-20T06:57:49;2.58;;;1.58;;
75649;SDS011;64245;51.282;22.494;2023-12-20T07:00:14;9.85;;;2.83;;
75649;SDS011;64245;51.282;22.494;2023-12-20T07:02:40;8.13;;;4.30;;
75649;SDS011;64245;51.282;22.494;2023-12-20T07:05:06;8.70;;;4.18;;
75649;SDS011;64245;51.282;22.494;2023-12-20T07:07:32;7.05;;;3.92;;
75649;SDS011;64245;51.282;22.494;2023-12-20T07:09:58;2.03;;;1.67;;
75649;SDS011;64245;51.282;22.494;2023-12-20T07:12:24;10.45;;;4.88;;
75649;SDS011;64245;51.282;22.494;2023-12-20T07:14:49;6.72;;;3.75;;
75649;SDS011;64245;51.282;22.494;2023-12-20T07:17:15;7.93;;;3.17;;
75649;SDS011;64245;51.282;22.494;2023-12-20T07:19:41;6.10;;;3.75;;
75649;SDS011;64245;51.282;22.494;2023-12-20T07:22:07;8.25;;;3.30;;
75649;SDS011;64245;51.282;22.494;2023-12-20T07:24:33;4.78;;;2.20;;
75649;SDS011;64245;51.282;22.494;2023-12-20T07:27:00;5.85;;;4.20;;
75649;SDS011;64245;51.282;22.494;2023-12-20T07:29:26;4.07;;;2.83;;
75649;SDS011;64245;51.282;22.494;2023-12-20T07:31:52;3.42;;;3.13;;
75649;SDS011;64245;51.282;22.494;2023-12-20T07:34:22;7.97;;;2.80;;
75649;SDS011;64245;51.282;22.494;2023-12-20T07:36:47;4.10;;;2.83;;
75649;SDS011;64245;51.282;22.494;2023-12-20T07:39:13;5.32;;;2.88;;
75649;SDS011;64245;51.282;22.494;2023-12-20T07:41:40;11.00;;;4.13;;
75649;SDS011;64245;51.282;22.494;2023-12-20T07:44:06;8.88;;;3.92;;
75649;SDS011;64245;51.282;22.494;2023-12-20T07:46:32;10.27;;;4.82;;
75649;SDS011;64245;51.282;22.494;2023-12-20T07:48:57;6.97;;;4.30;;
75649;SDS011;64245;51.282;22.494;2023-12-20T07:51:23;9.05;;;3.72;;
75649;SDS011;64245;51.282;22.494;2023-12-20T07:53:49;3.00;;;2.75;;
75649;SDS011;64245;51.282;22.494;2023-12-20T07:58:44;7.65;;;2.78;;
75649;SDS011;64245;51.282;22.494;2023-12-20T08:01:11;4.35;;;3.10;;
75649;SDS011;64245;51.282;22.494;2023-12-20T08:03:37;5.88;;;3.53;;
75649;SDS011;64245;51.282;22.494;2023-12-20T08:06:03;4.35;;;3.28;;
75649;SDS011;64245;51.282;22.494;2023-12-20T08:08:29;4.28;;;2.28;;
75649;SDS011;64245;51.282;22.494;2023-12-20T08:10:55;6.53;;;4.63;;
75649;SDS011;64245;51.282;22.494;2023-12-20T08:13:23;7.35;;;3.90;;
75649;SDS011;64245;51.282;22.494;2023-12-20T08:18:21;5.57;;;2.85;;
75649;SDS011;64245;51.282;22.494;2023-12-20T08:20:47;13.57;;;5.90;;
75649;SDS011;64245;51.282;22.494;2023-12-20T08:23:13;7.05;;;4.57;;
75649;SDS011;64245;51.282;22.494;2023-12-20T08:25:39;10.38;;;4.47;;
75649;SDS011;64245;51.282;22.494;2023-12-20T08:28:05;7.35;;;3.58;;
75649;SDS011;64245;51.282;22.494;2023-12-20T08:30:31;3.20;;;2.53;;
75649;SDS011;64245;51.282;22.494;2023-12-20T08:32:59;4.45;;;3.63;;
75649;SDS011;64245;51.282;22.494;2023-12-20T08:35:25;9.55;;;3.70;;
75649;SDS011;64245;51.282;22.494;2023-12-20T08:37:51;9.77;;;4.50;;
75649;SDS011;64245;51.282;22.494;2023-12-20T08:40:16;4.85;;;4.05;;
75649;SDS011;64245;51.282;22.494;2023-12-20T08:42:42;9.68;;;4.22;;
75649;SDS011;64245;51.282;22.494;2023-12-20T08:45:08;8.85;;;3.35;;
75649;SDS011;64245;51.282;22.494;2023-12-20T08:47:33;10.40;;;5.22;;
75649;SDS011;64245;51.282;22.494;2023-12-20T08:49:59;9.63;;;5.72;;
75649;SDS011;64245;51.282;22.494;2023-12-20T08:52:26;8.48;;;3.85;;
75649;SDS011;64245;51.282;22.494;2023-12-20T08:54:53;11.25;;;5.13;;
75649;SDS011;64245;51.282;22.494;2023-12-20T08:57:22;8.32;;;5.07;;
75649;SDS011;64245;51.282;22.494;2023-12-20T08:59:51;10.40;;;4.90;;
75649;SDS011;64245;51.282;22.494;2023-12-20T09:02:16;7.00;;;5.05;;
75649;SDS011;64245;51.282;22.494;2023-12-20T09:04:43;3.83;;;3.45;;
75649;SDS011;64245;51.282;22.494;2023-12-20T09:07:30;7.00;;;4.25;;
75649;SDS011;64245;51.282;22.494;2023-12-20T09:09:57;11.07;;;4.82;;
75649;SDS011;64245;51.282;22.494;2023-12-20T09:12:23;10.38;;;4.70;;
75649;SDS011;64245;51.282;22.494;2023-12-20T09:14:50;8.68;;;3.40;;
75649;SDS011;64245;51.282;22.494;2023-12-20T09:17:17;6.55;;;2.78;;
75649;SDS011;64245;51.282;22.494;2023-12-20T09:19:43;3.42;;;3.10;;
75649;SDS011;64245;51.282;22.494;2023-12-20T09:22:10;4.93;;;3.38;;
75649;SDS011;64245;51.282;22.494;2023-12-20T09:24:35;8.27;;;4.10;;
75649;SDS011;64245;51.282;22.494;2023-12-20T09:27:01;6.55;;;3.40;;
75649;SDS011;64245;51.282;22.494;2023-12-20T09:29:28;5.47;;;3.45;;
75649;SDS011;64245;51.282;22.494;2023-12-20T09:31:54;3.38;;;2.42;;
75649;SDS011;64245;51.282;22.494;2023-12-20T09:34:20;4.75;;;3.42;;
75649;SDS011;64245;51.282;22.494;2023-12-20T09:36:46;9.80;;;2.75;;
75649;SDS011;64245;51.282;22.494;2023-12-20T09:39:16;5.70;;;3.13;;
75649;SDS011;64245;51.282;22.494;2023-12-20T09:41:47;8.95;;;2.97;;
75649;SDS011;64245;51.282;22.494;2023-12-20T09:44:26;4.95;;;3.58;;
75649;SDS011;64245;51.282;22.494;2023-12-20T09:46:52;9.77;;;2.90;;
75649;SDS011;64245;51.282;22.494;2023-12-20T09:49:20;4.90;;;2.90;;
75649;SDS011;64245;51.282;22.494;2023-12-20T09:51:46;4.38;;;2.67;;
75649;SDS011;64245;51.282;22.494;2023-12-20T09:54:16;4.90;;;2.38;;
75649;SDS011;64245;51.282;22.494;2023-12-20T09:56:42;6.82;;;2.92;;
75649;SDS011;64245;51.282;22.494;2023-12-20T09:59:08;2.53;;;1.58;;
75649;SDS011;64245;51.282;22.494;2023-12-20T10:01:34;6.55;;;3.70;;
75649;SDS011;64245;51.282;22.494;2023-12-20T10:04:03;2.60;;;1.90;;
75649;SDS011;64245;51.282;22.494;2023-12-20T10:06:37;7.28;;;3.33;;
75649;SDS011;64245;51.282;22.494;2023-12-20T10:09:06;6.13;;;3.63;;
75649;SDS011;64245;51.282;22.494;2023-12-20T10:11:32;4.85;;;2.88;;
75649;SDS011;64245;51.282;22.494;2023-12-20T10:14:00;5.88;;;2.80;;
75649;SDS011;64245;51.282;22.494;2023-12-20T10:16:26;7.45;;;3.17;;
75649;SDS011;64245;51.282;22.494;2023-12-20T10:18:56;6.05;;;3.63;;
75649;SDS011;64245;51.282;22.494;2023-12-20T10:21:22;6.57;;;2.83;;
75649;SDS011;64245;51.282;22.494;2023-12-20T10:23:48;2.95;;;2.53;;
75649;SDS011;64245;51.282;22.494;2023-12-20T10:26:24;1.77;;;1.33;;
75649;SDS011;64245;51.282;22.494;2023-12-20T10:28:52;5.85;;;3.40;;
75649;SDS011;64245;51.282;22.494;2023-12-20T10:31:32;2.83;;;2.28;;
75649;SDS011;64245;51.282;22.494;2023-12-20T10:33:59;3.72;;;2.60;;
75649;SDS011;64245;51.282;22.494;2023-12-20T10:36:26;5.95;;;2.58;;
75649;SDS011;64245;51.282;22.494;2023-12-20T10:38:54;3.85;;;2.10;;
75649;SDS011;64245;51.282;22.494;2023-12-20T10:41:27;3.92;;;3.33;;
75649;SDS011;64245;51.282;22.494;2023-12-20T10:43:56;4.88;;;2.35;;
75649;SDS011;64245;51.282;22.494;2023-12-20T10:46:28;3.30;;;2.80;;
75649;SDS011;64245;51.282;22.494;2023-12-20T10:48:55;2.28;;;1.65;;
75649;SDS011;64245;51.282;22.494;2023-12-20T10:51:22;3.22;;;1.45;;
75649;SDS011;64245;51.282;22.494;2023-12-20T10:53:50;1.50;;;1.40;;
75649;SDS011;64245;51.282;22.494;2023-12-20T10:56:16;1.50;;;1.02;;
75649;SDS011;64245;51.282;22.494;2023-12-20T10:58:43;1.50;;;0.77;;
75649;SDS011;64245;51.282;22.494;2023-12-20T11:01:11;1.25;;;1.08;;
75649;SDS011;64245;51.282;22.494;2023-12-20T11:03:39;1.27;;;0.95;;
75649;SDS011;64245;51.282;22.494;2023-12-20T11:06:19;1.98;;;1.08;;
75649;SDS011;64245;51.282;22.494;2023-12-20T11:14:45;4.07;;;1.50;;
75649;SDS011;64245;51.282;22.494;2023-12-20T11:17:13;0.80;;;0.80;;
75649;SDS011;64245;51.282;22.494;2023-12-20T11:22:25;1.58;;;1.05;;
75649;SDS011;64245;51.282;22.494;2023-12-20T11:24:53;0.98;;;0.55;;
75649;SDS011;64245;51.282;22.494;2023-12-20T11:27:23;0.95;;;0.60;;
75649;SDS011;64245;51.282;22.494;2023-12-20T11:29:52;3.65;;;0.93;;
75649;SDS011;64245;51.282;22.494;2023-12-20T11:34:55;1.10;;;0.43;;
75649;SDS011;64245;51.282;22.494;2023-12-20T11:37:37;1.40;;;0.85;;
75649;SDS011;64245;51.282;22.494;2023-12-20T11:40:07;3.17;;;0.77;;
75649;SDS011;64245;51.282;22.494;2023-12-20T11:42:40;1.52;;;0.68;;
75649;SDS011;64245;51.282;22.494;2023-12-20T11:45:10;2.83;;;0.40;;
75649;SDS011;64245;51.282;22.494;2023-12-20T11:47:40;0.60;;;0.55;;
75649;SDS011;64245;51.282;22.494;2023-12-20T11:50:07;5.93;;;1.58;;
75649;SDS011;64245;51.282;22.494;2023-12-20T11:52:32;1.08;;;0.45;;
75649;SDS011;64245;51.282;22.494;2023-12-20T11:54:58;2.42;;;0.85;;
75649;SDS011;64245;51.282;22.494;2023-12-20T11:57:24;0.60;;;0.60;;
75649;SDS011;64245;51.282;22.494;2023-12-20T11:59:50;0.30;;;0.30;;
75649;SDS011;64245;51.282;22.494;2023-12-20T12:02:16;4.05;;;1.08;;
75649;SDS011;64245;51.282;22.494;2023-12-20T12:04:42;1.10;;;0.55;;
75649;SDS011;64245;51.282;22.494;2023-12-20T12:07:07;2.08;;;0.82;;
75649;SDS011;64245;51.282;22.494;2023-12-20T12:09:34;0.50;;;0.45;;
75649;SDS011;64245;51.282;22.494;2023-12-20T12:12:00;0.65;;;0.57;;
75649;SDS011;64245;51.282;22.494;2023-12-20T12:14:26;1.13;;;0.90;;
75649;SDS011;64245;51.282;22.494;2023-12-20T12:16:51;0.60;;;0.30;;
75649;SDS011;64245;51.282;22.494;2023-12-20T12:19:22;0.80;;;0.63;;
75649;SDS011;64245;51.282;22.494;2023-12-20T12:21:50;0.38;;;0.20;;
75649;SDS011;64245;51.282;22.494;2023-12-20T12:24:20;0.63;;;0.63;;
75649;SDS011;64245;51.282;22.494;2023-12-20T12:26:50;0.30;;;0.22;;
75649;SDS011;64245;51.282;22.494;2023-12-20T12:29:17;0.70;;;0.10;;
75649;SDS011;64245;51.282;22.494;2023-12-20T12:31:42;0.40;;;0.40;;
75649;SDS011;64245;51.282;22.494;2023-12-20T12:34:08;0.38;;;0.35;;
75649;SDS011;64245;51.282;22.494;2023-12-20T12:36:34;0.47;;;0.10;;
75649;SDS011;64245;51.282;22.494;2023-12-20T12:39:03;1.10;;;0.40;;
75649;SDS011;64245;51.282;22.494;2023-12-20T12:41:30;0.10;;;0.10;;
75649;SDS011;64245;51.282;22.494;2023-12-20T12:43:56;0.30;;;0.30;;
75649;SDS011;64245;51.282;22.494;2023-12-20T12:46:21;0.00;;;0.00;;
75649;SDS011;64245;51.282;22.494;2023-12-20T12:48:47;0.98;;;0.95;;
75649;SDS011;64245;51.282;22.494;2023-12-20T12:51:14;0.80;;;0.52;;
75649;SDS011;64245;51.282;22.494;2023-12-20T12:53:40;0.00;;;0.00;;
75649;SDS011;64245;51.282;22.494;2023-12-20T12:56:06;0.63;;;0.47;;
75649;SDS011;64245;51.282;22.494;2023-12-20T12:58:32;0.25;;;0.15;;
75649;SDS011;64245;51.282;22.494;2023-12-20T13:00:58;0.30;;;0.28;;
75649;SDS011;64245;51.282;22.494;2023-12-20T13:03:24;1.20;;;0.22;;
75649;SDS011;64245;51.282;22.494;2023-12-20T13:05:50;1.50;;;0.13;;
75649;SDS011;64245;51.282;22.494;2023-12-20T13:08:15;0.20;;;0.20;;
75649;SDS011;64245;51.282;22.494;2023-12-20T13:10:41;3.42;;;1.08;;
75649;SDS011;64245;51.282;22.494;2023-12-20T13:13:07;0.30;;;0.30;;
75649;SDS011;64245;51.282;22.494;2023-12-20T13:15:33;0.50;;;0.50;;
75649;SDS011;64245;51.282;22.494;2023-12-20T13:17:58;0.32;;;0.32;;
75649;SDS011;64245;51.282;22.494;2023-12-20T13:20:25;1.17;;;0.20;;
75649;SDS011;64245;51.282;22.494;2023-12-20T13:22:51;0.00;;;0.00;;
75649;SDS011;64245;51.282;22.494;2023-12-20T13:25:16;0.45;;;0.45;;
75649;SDS011;64245;51.282;22.494;2023-12-20T13:27:42;3.40;;;1.10;;
75649;SDS011;64245;51.282;22.494;2023-12-20T13:30:08;0.30;;;0.30;;
75649;SDS011;64245;51.282;22.494;2023-12-20T13:32:35;1.83;;;0.98;;
75649;SDS011;64245;51.282;22.494;2023-12-20T13:35:00;4.53;;;0.85;;
75649;SDS011;64245;51.282;22.494;2023-12-20T13:37:26;0.75;;;0.30;;
75649;SDS011;64245;51.282;22.494;2023-12-20T13:39:52;0.57;;;0.57;;
75649;SDS011;64245;51.282;22.494;2023-12-20T13:42:18;0.20;;;0.13;;
75649;SDS011;64245;51.282;22.494;2023-12-20T13:44:43;0.40;;;0.40;;
75649;SDS011;64245;51.282;22.494;2023-12-20T13:47:09;0.68;;;0.32;;
75649;SDS011;64245;51.282;22.494;2023-12-20T13:49:35;0.60;;;0.38;;
75649;SDS011;64245;51.282;22.494;2023-12-20T13:52:01;0.60;;;0.50;;
75649;SDS011;64245;51.282;22.494;2023-12-20T13:54:26;2.00;;;0.68;;
75649;SDS011;64245;51.282;22.494;2023-12-20T13:56:52;0.00;;;0.00;;
75649;SDS011;64245;51.282;22.494;2023-12-20T13:59:17;0.25;;;0.25;;
75649;SDS011;64245;51.282;22.494;2023-12-20T14:01:43;0.20;;;0.20;;
75649;SDS011;64245;51.282;22.494;2023-12-20T14:04:09;0.88;;;0.30;;
75649;SDS011;64245;51.282;22.494;2023-12-20T14:06:36;0.47;;;0.25;;
75649;SDS011;64245;51.282;22.494;2023-12-20T14:09:02;1.50;;;0.98;;
75649;SDS011;64245;51.282;22.494;2023-12-20T14:11:28;0.80;;;0.77;;
75649;SDS011;64245;51.282;22.494;2023-12-20T14:13:54;1.30;;;1.15;;
75649;SDS011;64245;51.282;22.494;2023-12-20T14:16:24;1.52;;;0.50;;
75649;SDS011;64245;51.282;22.494;2023-12-20T14:18:50;0.75;;;0.45;;
75649;SDS011;64245;51.282;22.494;2023-12-20T14:21:17;0.17;;;0.10;;
75649;SDS011;64245;51.282;22.494;2023-12-20T14:23:45;0.30;;;0.30;;
75649;SDS011;64245;51.282;22.494;2023-12-20T14:26:12;0.30;;;0.30;;
75649;SDS011;64245;51.282;22.494;2023-12-20T14:28:42;1.08;;;0.82;;
75649;SDS011;64245;51.282;22.494;2023-12-20T14:33:35;4.50;;;0.60;;
75649;SDS011;64245;51.282;22.494;2023-12-20T14:36:03;0.73;;;0.45;;
75649;SDS011;64245;51.282;22.494;2023-12-20T14:38:33;2.33;;;1.48;;
75649;SDS011;64245;51.282;22.494;2023-12-20T14:41:00;1.60;;;0.50;;
75649;SDS011;64245;51.282;22.494;2023-12-20T14:43:28;0.43;;;0.38;;
75649;SDS011;64245;51.282;22.494;2023-12-20T14:45:54;1.42;;;1.00;;
75649;SDS011;64245;51.282;22.494;2023-12-20T14:48:20;1.40;;;0.20;;